<?xml version="1.0" encoding="utf-8"?>
<gpx xmlns:xsi="http://www.w3.org/2001/XMLSchema-instance" xmlns:xsd="http://www.w3.org/2001/XMLSchema" version="1.1" creator="Shapelink.com" xmlns="http://www.topografix.com/GPX/1/1" xmlns:gpxtpx="http://www.garmin.com/xmlschemas/TrackPointExtension/v1">
  <metadata>
    <name>Övrigt 2.87 km, 2018-06-18</name>
    <desc></desc>
    <author><name>Marian Moron</name></author> 
    <time>2018-06-18T22:59:15Z</time>
  </metadata>
  <trk>
    <name>Övrigt 2.87 km, 2018-06-18</name>
    <trkseg>
      <trkpt lat="51.229239559254" lon="4.458029939591">
        <ele>21.2</ele>
        <time>2018-06-18T22:59:15Z</time>
      </trkpt>
      <trkpt lat="51.228792720165" lon="4.458182154895">
        <ele>26</ele>
        <time>2018-06-18T23:00:03Z</time>
      </trkpt>
      <trkpt lat="51.228630865676" lon="4.458238145987">
        <ele>24.8</ele>
        <time>2018-06-18T23:00:20Z</time>
      </trkpt>
      <trkpt lat="51.228364153618" lon="4.458391870033">
        <ele>23</ele>
        <time>2018-06-18T23:00:51Z</time>
      </trkpt>
      <trkpt lat="51.227948998111" lon="4.458678363375">
        <ele>23</ele>
        <time>2018-06-18T23:01:24Z</time>
      </trkpt>
      <trkpt lat="51.2277504309" lon="4.458750950629">
        <ele>22</ele>
        <time>2018-06-18T23:01:44Z</time>
      </trkpt>
      <trkpt lat="51.227688991573" lon="4.458790094102">
        <ele>21.8</ele>
        <time>2018-06-18T23:01:54Z</time>
      </trkpt>
      <trkpt lat="51.22751657589" lon="4.458879612794">
        <ele>21.2</ele>
        <time>2018-06-18T23:02:36Z</time>
      </trkpt>
      <trkpt lat="51.227084153669" lon="4.459084969344">
        <ele>21.2</ele>
        <time>2018-06-18T23:03:09Z</time>
      </trkpt>
      <trkpt lat="51.226986588353" lon="4.459138864961">
        <ele>20.8</ele>
        <time>2018-06-18T23:03:18Z</time>
      </trkpt>
      <trkpt lat="51.22657277395" lon="4.459451258374">
        <ele>16.6</ele>
        <time>2018-06-18T23:03:48Z</time>
      </trkpt>
      <trkpt lat="51.226279155993" lon="4.459621578582">
        <ele>10</ele>
        <time>2018-06-18T23:04:14Z</time>
      </trkpt>
      <trkpt lat="51.226272031378" lon="4.459781337596">
        <ele>8.2</ele>
        <time>2018-06-18T23:04:46Z</time>
      </trkpt>
      <trkpt lat="51.226231127706" lon="4.459820983983">
        <ele>9.2</ele>
        <time>2018-06-18T23:04:52Z</time>
      </trkpt>
      <trkpt lat="51.226235653932" lon="4.459880411654">
        <ele>8.8</ele>
        <time>2018-06-18T23:04:56Z</time>
      </trkpt>
      <trkpt lat="51.226315281982" lon="4.46012885117">
        <ele>8.4</ele>
        <time>2018-06-18T23:05:16Z</time>
      </trkpt>
      <trkpt lat="51.226225092738" lon="4.459903713336">
        <ele>4.8</ele>
        <time>2018-06-18T23:05:37Z</time>
      </trkpt>
      <trkpt lat="51.226151080561" lon="4.459908239562">
        <ele>2.8</ele>
        <time>2018-06-18T23:05:44Z</time>
      </trkpt>
      <trkpt lat="51.225876740974" lon="4.460019299737">
        <ele>1.2</ele>
        <time>2018-06-18T23:06:44Z</time>
      </trkpt>
      <trkpt lat="51.225805494824" lon="4.460062382703">
        <ele>1.6</ele>
        <time>2018-06-18T23:06:52Z</time>
      </trkpt>
      <trkpt lat="51.225380113399" lon="4.460356503574">
        <ele>2.8</ele>
        <time>2018-06-18T23:07:54Z</time>
      </trkpt>
      <trkpt lat="51.225359996839" lon="4.460370417528">
        <ele>2.6</ele>
        <time>2018-06-18T23:07:56Z</time>
      </trkpt>
      <trkpt lat="51.224945511884" lon="4.460666550055">
        <ele>7</ele>
        <time>2018-06-18T23:08:41Z</time>
      </trkpt>
      <trkpt lat="51.224765217215" lon="4.460780879171">
        <ele>7.4</ele>
        <time>2018-06-18T23:09:33Z</time>
      </trkpt>
      <trkpt lat="51.224357940694" lon="4.461128057469">
        <ele>4.6</ele>
        <time>2018-06-18T23:10:40Z</time>
      </trkpt>
      <trkpt lat="51.223965751593" lon="4.461433913">
        <ele>5.2</ele>
        <time>2018-06-18T23:12:00Z</time>
      </trkpt>
      <trkpt lat="51.223955525675" lon="4.461440283244">
        <ele>5.2</ele>
        <time>2018-06-18T23:12:01Z</time>
      </trkpt>
      <trkpt lat="51.223759892129" lon="4.46154539227">
        <ele>4.8</ele>
        <time>2018-06-18T23:12:38Z</time>
      </trkpt>
      <trkpt lat="51.223497873935" lon="4.46177086538">
        <ele>1</ele>
        <time>2018-06-18T23:13:15Z</time>
      </trkpt>
      <trkpt lat="51.223082718428" lon="4.462048893003">
        <ele>5</ele>
        <time>2018-06-18T23:14:02Z</time>
      </trkpt>
      <trkpt lat="51.22266429398" lon="4.462351479593">
        <ele>7.2</ele>
        <time>2018-06-18T23:14:52Z</time>
      </trkpt>
      <trkpt lat="51.222633700045" lon="4.462376709112">
        <ele>6.6</ele>
        <time>2018-06-18T23:14:56Z</time>
      </trkpt>
      <trkpt lat="51.222515599074" lon="4.462454493144">
        <ele>6.4</ele>
        <time>2018-06-18T23:15:14Z</time>
      </trkpt>
      <trkpt lat="51.222242600591" lon="4.462777363932">
        <ele>4.2</ele>
        <time>2018-06-18T23:15:54Z</time>
      </trkpt>
      <trkpt lat="51.22232985617" lon="4.462850537919">
        <ele>3.6</ele>
        <time>2018-06-18T23:16:04Z</time>
      </trkpt>
      <trkpt lat="51.222700922883" lon="4.463246666513">
        <ele>0</ele>
        <time>2018-06-18T23:16:48Z</time>
      </trkpt>
      <trkpt lat="51.223053381778" lon="4.463724770089">
        <ele>0</ele>
        <time>2018-06-18T23:17:45Z</time>
      </trkpt>
      <trkpt lat="51.223118844417" lon="4.463753939101">
        <ele>0</ele>
        <time>2018-06-18T23:17:56Z</time>
      </trkpt>
      <trkpt lat="51.223186821626" lon="4.463789310719">
        <ele>0</ele>
        <time>2018-06-18T23:18:10Z</time>
      </trkpt>
      <trkpt lat="51.223302072751" lon="4.463830382029">
        <ele>0</ele>
        <time>2018-06-18T23:18:33Z</time>
      </trkpt>
      <trkpt lat="51.22338681376" lon="4.463897688686">
        <ele>0</ele>
        <time>2018-06-18T23:18:48Z</time>
      </trkpt>
      <trkpt lat="51.223436518427" lon="4.463958038366">
        <ele>0</ele>
        <time>2018-06-18T23:19:08Z</time>
      </trkpt>
      <trkpt lat="51.223827617881" lon="4.464299516972">
        <ele>0</ele>
        <time>2018-06-18T23:20:14Z</time>
      </trkpt>
      <trkpt lat="51.223928703595" lon="4.464418288495">
        <ele>0</ele>
        <time>2018-06-18T23:20:32Z</time>
      </trkpt>
      <trkpt lat="51.224167587745" lon="4.464623393588">
        <ele>0</ele>
        <time>2018-06-18T23:21:04Z</time>
      </trkpt>
      <trkpt lat="51.224377219064" lon="4.46489228494">
        <ele>0</ele>
        <time>2018-06-18T23:21:44Z</time>
      </trkpt>
      <trkpt lat="51.224407812999" lon="4.464925309626">
        <ele>0.6</ele>
        <time>2018-06-18T23:21:48Z</time>
      </trkpt>
      <trkpt lat="51.22452507578" lon="4.465058665655">
        <ele>0.2</ele>
        <time>2018-06-18T23:22:08Z</time>
      </trkpt>
      <trkpt lat="51.224910810818" lon="4.465425457599">
        <ele>0</ele>
        <time>2018-06-18T23:22:54Z</time>
      </trkpt>
      <trkpt lat="51.2250263134" lon="4.465511539712">
        <ele>0</ele>
        <time>2018-06-18T23:23:11Z</time>
      </trkpt>
      <trkpt lat="51.225244410438" lon="4.465699629548">
        <ele>0.8</ele>
        <time>2018-06-18T23:23:42Z</time>
      </trkpt>
      <trkpt lat="51.225367959644" lon="4.465760565961">
        <ele>0</ele>
        <time>2018-06-18T23:23:58Z</time>
      </trkpt>
      <trkpt lat="51.225487569357" lon="4.465868943928">
        <ele>0</ele>
        <time>2018-06-18T23:24:13Z</time>
      </trkpt>
      <trkpt lat="51.22557616604" lon="4.465902722985">
        <ele>0</ele>
        <time>2018-06-18T23:24:25Z</time>
      </trkpt>
      <trkpt lat="51.2258561215" lon="4.466057033764">
        <ele>0</ele>
        <time>2018-06-18T23:24:57Z</time>
      </trkpt>
      <trkpt lat="51.225990399538" lon="4.466087460061">
        <ele>0</ele>
        <time>2018-06-18T23:25:15Z</time>
      </trkpt>
      <trkpt lat="51.226082851895" lon="4.466096344875">
        <ele>0</ele>
        <time>2018-06-18T23:25:30Z</time>
      </trkpt>
      <trkpt lat="51.226434221143" lon="4.466157616564">
        <ele>0</ele>
        <time>2018-06-18T23:26:14Z</time>
      </trkpt>
      <trkpt lat="51.226874438531" lon="4.466290469679">
        <ele>0</ele>
        <time>2018-06-18T23:27:00Z</time>
      </trkpt>
      <trkpt lat="51.227020954143" lon="4.466280411399">
        <ele>0</ele>
        <time>2018-06-18T23:27:15Z</time>
      </trkpt>
      <trkpt lat="51.227176103112" lon="4.466356183775">
        <ele>0</ele>
        <time>2018-06-18T23:27:34Z</time>
      </trkpt>
      <trkpt lat="51.227320187973" lon="4.466327685315">
        <ele>0</ele>
        <time>2018-06-18T23:27:48Z</time>
      </trkpt>
      <trkpt lat="51.22746041716" lon="4.466330283704">
        <ele>0</ele>
        <time>2018-06-18T23:27:59Z</time>
      </trkpt>
      <trkpt lat="51.227537027726" lon="4.466318381406">
        <ele>0</ele>
        <time>2018-06-18T23:28:06Z</time>
      </trkpt>
      <trkpt lat="51.227678514198" lon="4.46641192341">
        <ele>0.2</ele>
        <time>2018-06-18T23:28:32Z</time>
      </trkpt>
      <trkpt lat="51.227884122205" lon="4.466408905926">
        <ele>0</ele>
        <time>2018-06-18T23:29:19Z</time>
      </trkpt>
      <trkpt lat="51.228233060702" lon="4.465970029642">
        <ele>1.2</ele>
        <time>2018-06-18T23:30:01Z</time>
      </trkpt>
      <trkpt lat="51.228527349211" lon="4.465668281242">
        <ele>1.2</ele>
        <time>2018-06-18T23:30:51Z</time>
      </trkpt>
      <trkpt lat="51.228545286477" lon="4.464973421732">
        <ele>0</ele>
        <time>2018-06-18T23:31:33Z</time>
      </trkpt>
      <trkpt lat="51.228491139403" lon="4.464405715645">
        <ele>0</ele>
        <time>2018-06-18T23:32:11Z</time>
      </trkpt>
      <trkpt lat="51.228632458237" lon="4.464203544217">
        <ele>5</ele>
        <time>2018-06-18T23:32:27Z</time>
      </trkpt>
      <trkpt lat="51.22873614234" lon="4.464177057413">
        <ele>5.2</ele>
        <time>2018-06-18T23:32:38Z</time>
      </trkpt>
      <trkpt lat="51.228868827817" lon="4.464166580038">
        <ele>0.8</ele>
        <time>2018-06-18T23:32:54Z</time>
      </trkpt>
      <trkpt lat="51.228936972664" lon="4.464168172599">
        <ele>0.4</ele>
        <time>2018-06-18T23:33:14Z</time>
      </trkpt>
      <trkpt lat="51.229048451934" lon="4.464162305269">
        <ele>0.6</ele>
        <time>2018-06-18T23:33:27Z</time>
      </trkpt>
      <trkpt lat="51.229436450085" lon="4.464060129908">
        <ele>0</ele>
        <time>2018-06-18T23:34:04Z</time>
      </trkpt>
      <trkpt lat="51.22946704402" lon="4.464008748861">
        <ele>0</ele>
        <time>2018-06-18T23:34:08Z</time>
      </trkpt>
      <trkpt lat="51.229924025208" lon="4.463998606762">
        <ele>0</ele>
        <time>2018-06-18T23:34:56Z</time>
      </trkpt>
      <trkpt lat="51.230008430941" lon="4.463972455234">
        <ele>0</ele>
        <time>2018-06-18T23:35:27Z</time>
      </trkpt>
      <trkpt lat="51.230316298128" lon="4.463563418514">
        <ele>0</ele>
        <time>2018-06-18T23:36:08Z</time>
      </trkpt>
      <trkpt lat="51.230173051457" lon="4.463028904751">
        <ele>0</ele>
        <time>2018-06-18T23:36:41Z</time>
      </trkpt>
      <trkpt lat="51.230094093959" lon="4.462666136119">
        <ele>1</ele>
        <time>2018-06-18T23:37:06Z</time>
      </trkpt>
      <trkpt lat="51.230196939872" lon="4.462074709255">
        <ele>7.2</ele>
        <time>2018-06-18T23:37:51Z</time>
      </trkpt>
      <trkpt lat="51.230599271072" lon="4.461937916647">
        <ele>4.6</ele>
        <time>2018-06-18T23:38:41Z</time>
      </trkpt>
      <trkpt lat="51.23091124539" lon="4.461840854245">
        <ele>6</ele>
        <time>2018-06-18T23:39:11Z</time>
      </trkpt>
      <trkpt lat="51.231255909118" lon="4.461584284286">
        <ele>6</ele>
        <time>2018-06-18T23:39:53Z</time>
      </trkpt>
      <trkpt lat="51.2312875927" lon="4.461548409754">
        <ele>6.8</ele>
        <time>2018-06-18T23:39:57Z</time>
      </trkpt>
      <trkpt lat="51.231299411179" lon="4.461230400468">
        <ele>6.4</ele>
        <time>2018-06-18T23:40:21Z</time>
      </trkpt>
      <trkpt lat="51.231292957116" lon="4.461170134607">
        <ele>0.6</ele>
        <time>2018-06-18T23:40:40Z</time>
      </trkpt>
      <trkpt lat="51.231514574552" lon="4.461611860737">
        <ele>0</ele>
        <time>2018-06-18T23:41:26Z</time>
      </trkpt>
      <trkpt lat="51.231545587582" lon="4.461584368105">
        <ele>0.2</ele>
        <time>2018-06-18T23:41:29Z</time>
      </trkpt>
      <trkpt lat="51.23185840009" lon="4.461162171802">
        <ele>1.8</ele>
        <time>2018-06-18T23:42:28Z</time>
      </trkpt>
      <trkpt lat="51.231865440886" lon="4.461114814067">
        <ele>0.8</ele>
        <time>2018-06-18T23:42:31Z</time>
      </trkpt>
      <trkpt lat="51.231873738967" lon="4.460813987676">
        <ele>0</ele>
        <time>2018-06-18T23:42:51Z</time>
      </trkpt>
      <trkpt lat="51.231865692343" lon="4.460669399901">
        <ele>0</ele>
        <time>2018-06-18T23:43:03Z</time>
      </trkpt>
      <trkpt lat="51.231812467278" lon="4.460205713193">
        <ele>0</ele>
        <time>2018-06-18T23:43:30Z</time>
      </trkpt>
      <trkpt lat="51.231692522289" lon="4.45951864885">
        <ele>3.8</ele>
        <time>2018-06-18T23:44:00Z</time>
      </trkpt>
      <trkpt lat="51.231625047994" lon="4.459194688415">
        <ele>0</ele>
        <time>2018-06-18T23:44:17Z</time>
      </trkpt>
      <trkpt lat="51.231604009425" lon="4.459046915518">
        <ele>0</ele>
        <time>2018-06-18T23:44:32Z</time>
      </trkpt>
      <trkpt lat="51.231573331671" lon="4.458913140394">
        <ele>0</ele>
        <time>2018-06-18T23:44:40Z</time>
      </trkpt>
      <trkpt lat="51.23145942165" lon="4.458452638808">
        <ele>0</ele>
        <time>2018-06-18T23:45:12Z</time>
      </trkpt>
      <trkpt lat="51.231353139158" lon="4.458471665721">
        <ele>0</ele>
        <time>2018-06-18T23:45:30Z</time>
      </trkpt>
      <trkpt lat="51.231235792558" lon="4.458382314667">
        <ele>0</ele>
        <time>2018-06-18T23:45:40Z</time>
      </trkpt>
      <trkpt lat="51.231226740106" lon="4.458331939448">
        <ele>0</ele>
        <time>2018-06-18T23:45:44Z</time>
      </trkpt>
      <trkpt lat="51.231188351004" lon="4.457894152811">
        <ele>0</ele>
        <time>2018-06-18T23:46:05Z</time>
      </trkpt>
      <trkpt lat="51.231177957448" lon="4.457732382141">
        <ele>2.8</ele>
        <time>2018-06-18T23:46:19Z</time>
      </trkpt>
      <trkpt lat="51.231039739917" lon="4.457665746036">
        <ele>6.8</ele>
        <time>2018-06-18T23:46:35Z</time>
      </trkpt>
      <trkpt lat="51.230752659842" lon="4.457707404079">
        <ele>4.6</ele>
        <time>2018-06-18T23:46:58Z</time>
      </trkpt>
      <trkpt lat="51.230370193745" lon="4.457787618862">
        <ele>4.8</ele>
        <time>2018-06-18T23:47:27Z</time>
      </trkpt>
      <trkpt lat="51.2300722172" lon="4.457866073446">
        <ele>5.8</ele>
        <time>2018-06-18T23:47:49Z</time>
      </trkpt>
      <trkpt lat="51.229696959537" lon="4.458004458615">
        <ele>2.4</ele>
        <time>2018-06-18T23:48:18Z</time>
      </trkpt>
    </trkseg>
  </trk>
</gpx>